createdAt,value
2023-02-21T00:02:04.812Z,100.00
2023-02-21T00:04:50.965Z,100.00
2023-02-21T00:07:37.591Z,100.00
2023-02-21T00:10:25.220Z,100.00
2023-02-21T00:13:11.301Z,100.00
2023-02-21T00:15:56.732Z,100.00
2023-02-21T00:18:42.331Z,100.00
2023-02-21T00:21:27.798Z,100.00
2023-02-21T00:24:13.972Z,100.00
2023-02-21T00:26:59.996Z,100.00
2023-02-21T00:29:46.132Z,100.00
2023-02-21T00:32:32.405Z,100.00
2023-02-21T00:35:18.031Z,100.00
2023-02-21T00:38:03.530Z,100.00
2023-02-21T00:40:49.038Z,100.00
2023-02-21T00:43:36.699Z,100.00
2023-02-21T00:46:23.127Z,100.00
2023-02-21T00:49:08.664Z,100.00
2023-02-21T00:51:54.433Z,100.00
2023-02-21T00:54:40.233Z,100.00
2023-02-21T00:57:26.087Z,100.00
2023-02-21T01:00:11.806Z,100.00
2023-02-21T01:02:57.328Z,100.00
2023-02-21T01:05:43.135Z,100.00
2023-02-21T01:08:28.848Z,100.00
2023-02-21T01:11:14.566Z,100.00
2023-02-21T01:14:00.254Z,100.00
2023-02-21T01:16:50.590Z,100.00
2023-02-21T01:19:36.687Z,100.00
2023-02-21T01:22:23.480Z,100.00
2023-02-21T01:25:10.589Z,100.00
2023-02-21T01:27:56.040Z,100.00
2023-02-21T01:30:42.310Z,100.00
2023-02-21T01:33:28.429Z,100.00
2023-02-21T01:36:14.552Z,100.00
2023-02-21T01:39:00.745Z,100.00
2023-02-21T01:41:49.275Z,100.00
2023-02-21T01:45:08.014Z,100.00
2023-02-21T01:47:53.494Z,100.00
2023-02-21T01:50:48.622Z,100.00
2023-02-21T01:53:38.237Z,100.00
2023-02-21T01:56:25.555Z,100.00
2023-02-21T01:59:14.357Z,100.00
2023-02-21T02:02:08.374Z,100.00
2023-02-21T02:04:54.458Z,100.00
2023-02-21T02:07:40.782Z,100.00
2023-02-21T02:10:31.044Z,100.00
2023-02-21T02:13:08.811Z,100.00
2023-02-21T02:15:43.600Z,100.00
2023-02-21T02:18:38.558Z,100.00
2023-02-21T02:21:23.851Z,100.00
2023-02-21T02:24:25.909Z,100.00
2023-02-21T02:27:31.648Z,100.00
2023-02-21T02:30:33.874Z,100.00
2023-02-21T02:33:22.630Z,100.00
2023-02-21T02:36:01.075Z,100.00
2023-02-21T02:38:38.814Z,100.00
2023-02-21T02:41:21.198Z,100.00
2023-02-21T02:44:04.675Z,100.00
2023-02-21T02:46:38.255Z,100.00
2023-02-21T02:49:10.926Z,100.00
2023-02-21T02:51:38.153Z,100.00
2023-02-21T02:54:07.676Z,100.00
2023-02-21T02:56:37.250Z,100.00
2023-02-21T02:59:11.307Z,100.00
2023-02-21T03:02:10.862Z,100.00
2023-02-21T03:04:53.033Z,100.00
2023-02-21T03:07:20.772Z,100.00
2023-02-21T03:10:12.015Z,100.00
2023-02-21T03:12:52.006Z,100.00
2023-02-21T03:15:21.957Z,100.00
2023-02-21T03:17:56.662Z,100.00
2023-02-21T03:20:26.577Z,100.00
2023-02-21T03:22:56.384Z,100.00
2023-02-21T03:25:24.709Z,100.00
2023-02-21T03:27:58.507Z,100.00
2023-02-21T03:30:30.864Z,100.00
2023-02-21T03:32:59.055Z,100.00
2023-02-21T03:35:33.346Z,100.00
2023-02-21T03:38:01.156Z,100.00
2023-02-21T03:40:31.390Z,100.00
2023-02-21T03:43:02.224Z,100.00
2023-02-21T03:45:34.951Z,100.00
2023-02-21T03:48:30.955Z,100.00
2023-02-21T03:51:05.420Z,100.00
2023-02-21T03:53:36.681Z,100.00
2023-02-21T03:56:04.689Z,100.00
2023-02-21T03:58:54.624Z,100.00
2023-02-21T04:01:22.378Z,100.00
2023-02-21T04:03:51.295Z,100.00
2023-02-21T04:06:18.448Z,100.00
2023-02-21T04:08:46.562Z,100.00
2023-02-21T04:11:18.831Z,100.00
2023-02-21T04:13:46.063Z,100.00
2023-02-21T04:16:13.293Z,100.00
2023-02-21T04:18:40.964Z,100.00
2023-02-21T04:21:10.486Z,100.00
2023-02-21T04:23:38.156Z,100.00
2023-02-21T04:26:06.280Z,100.00
2023-02-21T04:28:42.399Z,100.00
2023-02-21T04:31:09.557Z,100.00
2023-02-21T04:33:36.832Z,100.00
2023-02-21T04:36:07.783Z,100.00
2023-02-21T04:38:38.491Z,100.00
2023-02-21T04:41:06.540Z,100.00
2023-02-21T04:43:34.253Z,100.00
2023-02-21T04:46:01.744Z,100.00
2023-02-21T04:48:29.595Z,100.00
2023-02-21T04:51:13.446Z,100.00
2023-02-21T04:53:42.518Z,100.00
2023-02-21T04:56:11.501Z,100.00
2023-02-21T04:58:45.367Z,100.00
2023-02-21T05:01:15.010Z,100.00
2023-02-21T05:03:42.796Z,100.00
2023-02-21T05:06:11.751Z,100.00
2023-02-21T05:08:39.498Z,100.00
2023-02-21T05:11:09.549Z,100.00
2023-02-21T05:13:38.530Z,100.00
2023-02-21T05:16:06.811Z,100.00
2023-02-21T05:18:37.045Z,100.00
2023-02-21T05:21:10.379Z,100.00
2023-02-21T05:23:41.119Z,100.00
2023-02-21T05:26:12.128Z,100.00
2023-02-21T05:28:41.846Z,100.00
2023-02-21T05:31:09.569Z,100.00
2023-02-21T05:33:37.263Z,100.00
2023-02-21T05:36:05.140Z,100.00
2023-02-21T05:38:33.711Z,100.00
2023-02-21T05:41:02.132Z,100.00
2023-02-21T05:43:34.589Z,100.00
2023-02-21T05:46:02.959Z,100.00
2023-02-21T05:48:30.821Z,100.00
2023-02-21T05:50:59.648Z,100.00
2023-02-21T05:53:28.097Z,100.00
2023-02-21T05:55:55.633Z,100.00
2023-02-21T05:58:23.467Z,100.00
2023-02-21T06:00:53.490Z,100.00
2023-02-21T06:03:20.871Z,100.00
2023-02-21T06:05:49.535Z,100.00
2023-02-21T06:08:17.484Z,99.97
2023-02-21T06:10:45.695Z,97.01
2023-02-21T06:13:13.418Z,95.18
2023-02-21T06:15:40.705Z,95.15
2023-02-21T06:18:08.179Z,94.96
2023-02-21T06:20:35.428Z,94.47
2023-02-21T06:23:03.132Z,94.18
2023-02-21T06:25:30.546Z,91.72
2023-02-21T06:27:57.865Z,90.01
2023-02-21T06:30:25.572Z,90.11
2023-02-21T06:32:53.344Z,89.29
2023-02-21T06:35:20.992Z,88.34
2023-02-21T06:37:49.096Z,86.70
2023-02-21T06:40:17.041Z,87.08
2023-02-21T06:42:45.438Z,86.97
2023-02-21T06:45:14.334Z,85.44
2023-02-21T06:47:42.303Z,85.03
2023-02-21T06:50:11.284Z,83.30
2023-02-21T06:52:40.344Z,84.16
2023-02-21T06:55:08.309Z,83.00
2023-02-21T06:57:35.765Z,84.68
2023-02-21T07:00:05.189Z,80.83
2023-02-21T07:02:32.669Z,81.83
2023-02-21T07:05:02.894Z,80.52
2023-02-21T07:07:30.413Z,80.02
2023-02-21T07:09:58.078Z,80.40
2023-02-21T07:12:26.015Z,79.36
2023-02-21T07:14:53.728Z,79.46
2023-02-21T07:17:21.162Z,80.33
2023-02-21T07:19:49.003Z,79.70
2023-02-21T07:22:17.217Z,79.66
2023-02-21T07:24:46.064Z,79.47
2023-02-21T07:27:14.495Z,78.24
2023-02-21T07:29:42.424Z,78.35
2023-02-21T07:32:10.955Z,77.36
2023-02-21T07:34:38.992Z,76.78
2023-02-21T07:37:07.157Z,76.59
2023-02-21T07:39:35.708Z,77.56
2023-02-21T07:42:03.198Z,76.44
2023-02-21T07:44:31.473Z,75.37
2023-02-21T07:47:00.445Z,75.50
2023-02-21T07:49:28.160Z,75.73
2023-02-21T07:51:55.761Z,76.72
2023-02-21T07:54:23.539Z,78.49
2023-02-21T07:56:51.137Z,79.43
2023-02-21T07:59:18.623Z,79.41
2023-02-21T08:01:48.036Z,80.29
2023-02-21T08:04:20.844Z,82.24
2023-02-21T08:06:49.842Z,83.55
2023-02-21T08:09:17.982Z,86.13
2023-02-21T08:11:45.287Z,87.54
2023-02-21T08:14:13.162Z,88.45
2023-02-21T08:16:40.621Z,89.07
2023-02-21T08:19:09.691Z,90.62
2023-02-21T08:21:37.296Z,91.89
2023-02-21T08:24:05.261Z,92.80
2023-02-21T08:26:33.002Z,94.18
2023-02-21T08:29:01.066Z,95.26
2023-02-21T08:31:28.747Z,94.89
2023-02-21T08:33:56.592Z,94.98
2023-02-21T08:36:32.935Z,94.54
2023-02-21T08:39:01.134Z,91.25
2023-02-21T08:41:47.060Z,89.60
2023-02-21T08:44:17.250Z,89.60
2023-02-21T08:46:45.248Z,88.10
2023-02-21T08:49:12.803Z,85.14
2023-02-21T08:51:41.208Z,82.08
2023-02-21T08:54:09.183Z,80.80
2023-02-21T08:56:36.434Z,79.91
2023-02-21T08:59:05.717Z,78.68
2023-02-21T09:01:36.243Z,78.73
2023-02-21T09:04:05.042Z,72.71
2023-02-21T09:06:33.304Z,68.22
2023-02-21T09:09:00.937Z,69.02
2023-02-21T09:11:28.667Z,63.20
2023-02-21T09:13:56.488Z,64.87
2023-02-21T09:16:24.132Z,67.60
2023-02-21T09:19:01.216Z,74.66
2023-02-21T09:21:29.505Z,79.49
2023-02-21T09:23:59.500Z,83.42
2023-02-21T09:26:32.153Z,84.44
2023-02-21T09:28:59.751Z,84.06
2023-02-21T09:31:28.970Z,83.00
2023-02-21T09:33:59.549Z,80.51
2023-02-21T09:36:27.602Z,79.07
2023-02-21T09:38:59.111Z,77.76
2023-02-21T09:41:28.002Z,76.76
2023-02-21T09:43:55.747Z,75.35
2023-02-21T09:46:40.829Z,76.24
2023-02-21T09:49:24.562Z,77.42
2023-02-21T09:51:53.442Z,78.48
2023-02-21T09:54:41.991Z,79.51
2023-02-21T09:57:14.164Z,80.62
2023-02-21T09:59:41.781Z,81.60
2023-02-21T10:02:16.487Z,82.20
2023-02-21T10:04:57.379Z,81.91
2023-02-21T10:07:45.259Z,84.04
2023-02-21T10:10:31.403Z,84.46
2023-02-21T10:13:46.797Z,85.29
2023-02-21T10:16:26.999Z,85.49
2023-02-21T10:19:06.546Z,86.08
2023-02-21T10:21:40.352Z,88.38
2023-02-21T10:24:34.942Z,90.00
2023-02-21T10:27:07.797Z,91.03
2023-02-21T10:29:38.672Z,92.48
2023-02-21T10:32:07.347Z,93.35
2023-02-21T10:34:35.838Z,95.84
2023-02-21T10:37:16.610Z,96.55
2023-02-21T10:39:50.313Z,97.73
2023-02-21T10:42:36.979Z,98.13
2023-02-21T10:45:06.949Z,99.40
2023-02-21T10:48:01.168Z,100.00
2023-02-21T10:50:51.890Z,100.00
2023-02-21T10:53:45.984Z,100.00
2023-02-21T10:56:16.955Z,100.00
2023-02-21T10:58:54.642Z,100.00
2023-02-21T11:01:33.620Z,100.00
2023-02-21T11:04:05.447Z,100.00
2023-02-21T11:06:44.238Z,100.00
2023-02-21T11:09:47.633Z,100.00
2023-02-21T11:12:32.081Z,100.00
2023-02-21T11:14:59.478Z,100.00
2023-02-21T11:17:37.700Z,100.00
2023-02-21T11:20:18.248Z,96.47
2023-02-21T11:22:50.700Z,94.16
2023-02-21T11:25:27.324Z,93.15
2023-02-21T11:28:13.110Z,94.34
2023-02-21T11:30:52.448Z,93.57
2023-02-21T11:33:23.282Z,93.78
2023-02-21T11:35:52.609Z,94.97
2023-02-21T11:38:47.611Z,96.12
2023-02-21T11:41:20.608Z,97.07
2023-02-21T11:43:51.253Z,97.05
2023-02-21T11:46:57.409Z,97.95
2023-02-21T11:49:39.829Z,100.00
2023-02-21T11:52:13.822Z,100.00
2023-02-21T11:54:44.688Z,100.00
2023-02-21T11:57:15.067Z,100.00
2023-02-21T11:59:48.567Z,100.00
2023-02-21T12:02:21.828Z,100.00
2023-02-21T12:05:05.271Z,100.00
2023-02-21T12:07:42.199Z,100.00
2023-02-21T12:10:28.188Z,100.00
2023-02-21T12:13:03.030Z,100.00
2023-02-21T12:15:58.814Z,96.82
2023-02-21T12:18:36.775Z,93.25
2023-02-21T12:21:18.861Z,90.27
2023-02-21T12:24:01.113Z,85.41
2023-02-21T12:26:47.425Z,79.37
2023-02-21T12:29:23.468Z,77.28
2023-02-21T12:32:12.334Z,73.14
2023-02-21T12:34:56.511Z,70.30
2023-02-21T12:37:31.614Z,67.96
2023-02-21T12:40:17.694Z,68.54
2023-02-21T12:43:11.607Z,68.35
2023-02-21T12:45:48.683Z,69.81
2023-02-21T12:48:21.193Z,72.06
2023-02-21T12:50:55.678Z,74.29
2023-02-21T12:53:50.569Z,75.62
2023-02-21T12:56:22.753Z,79.19
2023-02-21T12:58:59.394Z,81.08
2023-02-21T13:01:37.742Z,82.67
2023-02-21T13:04:14.375Z,84.10
2023-02-21T13:07:04.132Z,83.41
2023-02-21T13:09:38.050Z,85.05
2023-02-21T13:12:16.685Z,84.83
2023-02-21T13:14:56.435Z,85.19
2023-02-21T13:17:24.678Z,83.79
2023-02-21T13:19:59.508Z,85.94
2023-02-21T13:23:23.668Z,86.67
2023-02-21T13:26:09.348Z,84.38
2023-02-21T13:28:39.193Z,84.26
2023-02-21T13:31:19.540Z,85.30
2023-02-21T13:33:53.172Z,85.20
2023-02-21T13:36:39.154Z,85.74
2023-02-21T13:39:09.757Z,83.73
2023-02-21T13:41:42.894Z,84.53
2023-02-21T13:44:18.002Z,85.54
2023-02-21T13:46:45.744Z,85.69
2023-02-21T13:49:43.205Z,86.00
2023-02-21T13:52:23.009Z,85.21
2023-02-21T13:55:15.330Z,86.21
2023-02-21T13:57:54.702Z,87.03
2023-02-21T14:00:25.273Z,86.96
2023-02-21T14:03:10.103Z,86.91
2023-02-21T14:05:46.873Z,86.85
2023-02-21T14:08:15.491Z,86.49
2023-02-21T14:11:15.319Z,85.31
2023-02-21T14:13:54.705Z,83.61
2023-02-21T14:16:50.001Z,83.59
2023-02-21T14:19:23.719Z,83.87
2023-02-21T14:21:57.300Z,83.18
2023-02-21T14:24:31.024Z,85.08
2023-02-21T14:27:05.493Z,88.24
2023-02-21T14:30:02.725Z,90.67
2023-02-21T14:32:52.729Z,92.15
2023-02-21T14:35:20.284Z,93.08
2023-02-21T14:38:01.676Z,94.46
2023-02-21T14:40:47.153Z,96.30
2023-02-21T14:43:38.224Z,96.68
2023-02-21T14:46:37.987Z,97.01
2023-02-21T14:49:32.950Z,97.80
2023-02-21T14:52:09.864Z,99.03
2023-02-21T14:55:01.893Z,100.00
2023-02-21T14:58:14.515Z,100.00
2023-02-21T15:00:48.645Z,100.00
2023-02-21T15:03:22.831Z,100.00
2023-02-21T15:05:50.543Z,100.00
2023-02-21T15:08:24.331Z,100.00
2023-02-21T15:10:56.918Z,100.00
2023-02-21T15:13:36.012Z,100.00
2023-02-21T15:16:09.395Z,100.00
2023-02-21T15:18:39.051Z,100.00
2023-02-21T15:21:12.498Z,100.00
2023-02-21T15:23:45.312Z,100.00
2023-02-21T15:26:35.142Z,100.00
2023-02-21T15:29:11.865Z,100.00
2023-02-21T15:31:54.089Z,100.00
2023-02-21T15:34:28.020Z,100.00
2023-02-21T15:37:23.597Z,100.00
2023-02-21T15:40:12.147Z,100.00
2023-02-21T15:42:42.497Z,100.00
2023-02-21T15:45:19.571Z,100.00
2023-02-21T15:47:48.719Z,100.00
2023-02-21T15:50:46.965Z,100.00
2023-02-21T15:53:21.764Z,100.00
2023-02-21T15:55:52.825Z,100.00
2023-02-21T15:58:27.887Z,100.00
2023-02-21T16:01:11.243Z,100.00
2023-02-21T16:03:47.297Z,100.00
2023-02-21T16:06:32.767Z,100.00
2023-02-21T16:09:15.984Z,100.00
2023-02-21T16:11:48.103Z,100.00
2023-02-21T16:14:22.149Z,100.00
2023-02-21T16:16:54.323Z,100.00
2023-02-21T16:19:24.074Z,99.14
2023-02-21T16:22:12.992Z,100.00
2023-02-21T16:24:42.206Z,100.00
2023-02-21T16:27:13.429Z,100.00
2023-02-21T16:29:41.154Z,100.00
2023-02-21T16:32:20.478Z,100.00
2023-02-21T16:34:51.342Z,100.00
2023-02-21T16:37:18.637Z,100.00
2023-02-21T16:39:46.033Z,100.00
2023-02-21T16:42:13.441Z,100.00
2023-02-21T16:44:44.185Z,100.00
2023-02-21T16:47:17.055Z,100.00
2023-02-21T16:49:45.364Z,100.00
2023-02-21T16:52:16.795Z,100.00
2023-02-21T16:54:44.516Z,100.00
2023-02-21T16:57:12.257Z,100.00
2023-02-21T16:59:41.008Z,100.00
2023-02-21T17:02:15.866Z,100.00
2023-02-21T17:04:43.549Z,100.00
2023-02-21T17:07:12.104Z,100.00
2023-02-21T17:09:41.289Z,100.00
2023-02-21T17:12:09.166Z,100.00
2023-02-21T17:14:36.524Z,100.00
2023-02-21T17:17:04.086Z,100.00
2023-02-21T17:19:31.999Z,100.00
2023-02-21T17:22:00.577Z,100.00
2023-02-21T17:24:28.308Z,100.00
2023-02-21T17:26:55.891Z,100.00
2023-02-21T17:29:23.759Z,100.00
2023-02-21T17:31:55.728Z,100.00
2023-02-21T17:34:23.323Z,100.00
2023-02-21T17:36:53.894Z,100.00
2023-02-21T17:39:22.074Z,100.00
2023-02-21T17:41:50.678Z,100.00
2023-02-21T17:44:19.063Z,100.00
2023-02-21T17:46:48.726Z,100.00
2023-02-21T17:49:21.623Z,100.00
2023-02-21T17:51:49.921Z,100.00
2023-02-21T17:54:20.293Z,100.00
2023-02-21T17:56:47.717Z,100.00
2023-02-21T17:59:15.880Z,100.00
2023-02-21T18:01:43.608Z,100.00
2023-02-21T18:04:13.899Z,100.00
2023-02-21T18:06:42.351Z,100.00
2023-02-21T18:09:11.314Z,100.00
2023-02-21T18:11:38.932Z,100.00
2023-02-21T18:14:06.803Z,100.00
2023-02-21T18:16:34.021Z,100.00
2023-02-21T18:19:01.473Z,100.00
2023-02-21T18:21:28.998Z,100.00
2023-02-21T18:23:56.483Z,100.00
2023-02-21T18:26:24.232Z,100.00
2023-02-21T18:28:51.469Z,100.00
2023-02-21T18:31:20.384Z,100.00
2023-02-21T18:33:49.508Z,100.00
2023-02-21T18:36:16.864Z,100.00
2023-02-21T18:38:44.407Z,100.00
2023-02-21T18:41:20.701Z,100.00
2023-02-21T18:43:48.055Z,100.00
2023-02-21T18:46:18.441Z,100.00
2023-02-21T18:48:49.230Z,100.00
2023-02-21T18:51:20.274Z,100.00
2023-02-21T18:53:49.585Z,100.00
2023-02-21T18:56:20.058Z,100.00
2023-02-21T18:58:49.895Z,100.00
2023-02-21T19:01:21.738Z,100.00
2023-02-21T19:03:54.252Z,100.00
2023-02-21T19:06:25.182Z,100.00
2023-02-21T19:08:54.588Z,100.00
2023-02-21T19:11:22.428Z,100.00
2023-02-21T19:13:50.637Z,100.00
2023-02-21T19:16:20.434Z,100.00
2023-02-21T19:18:50.778Z,100.00
2023-02-21T19:21:18.625Z,100.00
2023-02-21T19:23:46.082Z,100.00
2023-02-21T19:26:13.283Z,100.00
2023-02-21T19:28:40.925Z,100.00
2023-02-21T19:31:10.742Z,100.00
2023-02-21T19:33:41.191Z,100.00
2023-02-21T19:36:08.910Z,100.00
2023-02-21T19:38:36.670Z,100.00
2023-02-21T19:41:07.927Z,100.00
2023-02-21T19:43:36.111Z,100.00
2023-02-21T19:46:04.109Z,100.00
2023-02-21T19:48:32.829Z,100.00
2023-02-21T19:51:03.957Z,100.00
2023-02-21T19:53:33.380Z,100.00
2023-02-21T19:56:01.016Z,100.00
2023-02-21T19:58:28.362Z,100.00
2023-02-21T20:00:57.076Z,100.00
2023-02-21T20:03:26.381Z,100.00
2023-02-21T20:05:54.075Z,100.00
2023-02-21T20:08:22.584Z,100.00
2023-02-21T20:10:50.290Z,100.00
2023-02-21T20:13:20.764Z,100.00
2023-02-21T20:15:50.652Z,100.00
2023-02-21T20:18:18.542Z,100.00
2023-02-21T20:20:50.225Z,100.00
2023-02-21T20:23:18.210Z,100.00
2023-02-21T20:25:49.078Z,100.00
2023-02-21T20:28:17.747Z,100.00
2023-02-21T20:30:45.210Z,100.00
2023-02-21T20:33:12.976Z,100.00
2023-02-21T20:35:40.541Z,100.00
2023-02-21T20:38:09.726Z,100.00
2023-02-21T20:40:37.800Z,100.00
2023-02-21T20:43:05.143Z,100.00
2023-02-21T20:45:33.943Z,100.00
2023-02-21T20:48:11.693Z,100.00
2023-02-21T20:50:39.599Z,100.00
2023-02-21T20:53:07.543Z,100.00
2023-02-21T20:55:37.794Z,100.00
2023-02-21T20:58:06.840Z,100.00
2023-02-21T21:00:38.006Z,100.00
2023-02-21T21:03:09.801Z,100.00
2023-02-21T21:05:37.188Z,100.00
2023-02-21T21:08:04.524Z,100.00
2023-02-21T21:10:32.261Z,100.00
2023-02-21T21:13:00.048Z,100.00
2023-02-21T21:15:28.260Z,100.00
2023-02-21T21:17:56.154Z,100.00
2023-02-21T21:20:24.925Z,100.00
2023-02-21T21:22:52.891Z,100.00
2023-02-21T21:25:23.001Z,99.82
2023-02-21T21:27:50.666Z,98.94
2023-02-21T21:30:23.038Z,97.69
2023-02-21T21:32:50.546Z,97.42
2023-02-21T21:35:20.309Z,97.05
2023-02-21T21:37:48.592Z,95.98
2023-02-21T21:40:19.391Z,95.47
2023-02-21T21:42:55.048Z,95.28
2023-02-21T21:45:27.670Z,95.14
2023-02-21T21:47:59.187Z,95.11
2023-02-21T21:50:26.892Z,94.69
2023-02-21T21:52:58.762Z,94.27
2023-02-21T21:55:29.638Z,94.32
2023-02-21T21:57:59.067Z,94.49
2023-02-21T22:00:29.795Z,94.19
2023-02-21T22:03:02.280Z,93.90
2023-02-21T22:05:34.290Z,93.78
2023-02-21T22:08:02.753Z,93.76
2023-02-21T22:10:30.417Z,93.78
2023-02-21T22:13:00.152Z,93.32
2023-02-21T22:15:29.628Z,93.25
2023-02-21T22:18:02.110Z,93.58
2023-02-21T22:20:31.384Z,93.19
2023-02-21T22:22:58.859Z,93.40
2023-02-21T22:25:28.288Z,93.22
2023-02-21T22:27:55.789Z,93.24
2023-02-21T22:30:23.589Z,92.59
2023-02-21T22:32:51.308Z,92.66
2023-02-21T22:35:20.670Z,92.45
2023-02-21T22:37:53.017Z,92.04
2023-02-21T22:40:25.787Z,92.19
2023-02-21T22:43:00.330Z,91.80
2023-02-21T22:45:33.369Z,92.13
2023-02-21T22:48:03.737Z,92.01
2023-02-21T22:50:37.160Z,91.91
2023-02-21T22:53:08.418Z,92.16
2023-02-21T22:55:37.814Z,92.05
2023-02-21T22:58:09.535Z,92.38
2023-02-21T23:00:38.339Z,93.78
2023-02-21T23:03:13.328Z,95.20
2023-02-21T23:05:44.138Z,97.66
2023-02-21T23:08:13.547Z,99.61
2023-02-21T23:10:41.696Z,100.00
2023-02-21T23:13:14.604Z,100.00
2023-02-21T23:15:42.971Z,100.00
2023-02-21T23:18:11.906Z,100.00
2023-02-21T23:20:39.322Z,100.00
2023-02-21T23:23:06.723Z,100.00
2023-02-21T23:25:37.691Z,100.00
2023-02-21T23:28:08.402Z,100.00
2023-02-21T23:30:43.534Z,100.00
2023-02-21T23:33:18.502Z,99.71
2023-02-21T23:35:49.594Z,99.91
2023-02-21T23:38:18.733Z,99.83
2023-02-21T23:40:49.861Z,99.97
2023-02-21T23:43:19.049Z,99.56
2023-02-21T23:45:48.465Z,100.00
2023-02-21T23:48:16.111Z,99.76
2023-02-21T23:50:48.816Z,99.78
2023-02-21T23:53:17.705Z,100.00
2023-02-21T23:55:46.683Z,100.00
2023-02-21T23:58:16.524Z,100.00
